Country
Station

 

Weather  for  Luqa  -  Malta    Malta

  
15 °C (59 °F)
    
 
 

Current METAR for Luqa is :

LMML 121445Z 32019KT 9999 FEW040 15/07 Q1010 NOSIG

 

This is a report for Luqa - Malta.
 
The report was made 13 minutes ago, at 14:45 UTC .
The wind was blowing at a speed of 9.8 meters per second (21.9 miles per hour) from northwest (320°).
 
The temperature was 15 °C (59 °F), with a dew-point at 7 °C (45 °F).
The atmospheric pressure was 1010 hPa (29.83 inHg).
The relative humidity was 58.7%.
 
There were a few clouds at a height of 1219 meters (4000 feet).
 
The overall visibility was greater than 10 kilometers (6.2 miles).
 

 
 
 
 

Country :   A   B   C   D   E   F   G   H   I   J   K   L   M   N   O   P   Q   R   S   T   U   V   W   Y   Z

 

Site Info  |  Disclaimer  |  Credits  |  Privacy
Contact us  |  Add to favorites
© 2013-2019 METARs - All rights reserved